sensor_id;sensor_type;location;lat;lon;timestamp;P1;durP1;ratioP1;P2;durP2;ratioP2
19026;SDS011;9646;52.034;5.554;2023-08-06T00:01:01;3.83;;;2.25;;
19026;SDS011;9646;52.034;5.554;2023-08-06T00:03:28;3.33;;;1.83;;
19026;SDS011;9646;52.034;5.554;2023-08-06T00:05:55;1.95;;;1.75;;
19026;SDS011;9646;52.034;5.554;2023-08-06T00:08:22;3.97;;;1.70;;
19026;SDS011;9646;52.034;5.554;2023-08-06T00:10:49;3.45;;;2.13;;
19026;SDS011;9646;52.034;5.554;2023-08-06T00:13:16;2.97;;;2.05;;
19026;SDS011;9646;52.034;5.554;2023-08-06T00:15:43;2.15;;;1.83;;
19026;SDS011;9646;52.034;5.554;2023-08-06T00:18:11;2.20;;;1.52;;
19026;SDS011;9646;52.034;5.554;2023-08-06T00:20:39;2.67;;;2.08;;
19026;SDS011;9646;52.034;5.554;2023-08-06T00:23:06;4.40;;;2.45;;
19026;SDS011;9646;52.034;5.554;2023-08-06T00:25:33;2.42;;;2.05;;
19026;SDS011;9646;52.034;5.554;2023-08-06T00:28:00;2.13;;;1.90;;
19026;SDS011;9646;52.034;5.554;2023-08-06T00:30:27;2.58;;;2.00;;
19026;SDS011;9646;52.034;5.554;2023-08-06T00:32:54;2.60;;;2.03;;
19026;SDS011;9646;52.034;5.554;2023-08-06T00:35:23;4.03;;;2.10;;
19026;SDS011;9646;52.034;5.554;2023-08-06T00:37:50;7.35;;;2.42;;
19026;SDS011;9646;52.034;5.554;2023-08-06T00:40:19;3.10;;;1.92;;
19026;SDS011;9646;52.034;5.554;2023-08-06T00:42:47;2.75;;;2.10;;
19026;SDS011;9646;52.034;5.554;2023-08-06T00:45:14;3.28;;;2.33;;
19026;SDS011;9646;52.034;5.554;2023-08-06T00:47:41;3.78;;;2.58;;
19026;SDS011;9646;52.034;5.554;2023-08-06T00:50:09;2.30;;;2.08;;
19026;SDS011;9646;52.034;5.554;2023-08-06T00:52:37;3.67;;;2.20;;
19026;SDS011;9646;52.034;5.554;2023-08-06T00:55:05;2.67;;;1.75;;
19026;SDS011;9646;52.034;5.554;2023-08-06T00:57:32;4.53;;;2.65;;
19026;SDS011;9646;52.034;5.554;2023-08-06T00:59:59;2.72;;;2.33;;
19026;SDS011;9646;52.034;5.554;2023-08-06T01:02:26;2.90;;;2.03;;
19026;SDS011;9646;52.034;5.554;2023-08-06T01:04:54;4.15;;;2.08;;
19026;SDS011;9646;52.034;5.554;2023-08-06T01:07:24;3.08;;;2.20;;
19026;SDS011;9646;52.034;5.554;2023-08-06T01:10:00;2.70;;;1.90;;
19026;SDS011;9646;52.034;5.554;2023-08-06T01:12:38;3.20;;;2.33;;
19026;SDS011;9646;52.034;5.554;2023-08-06T01:15:11;2.50;;;1.77;;
19026;SDS011;9646;52.034;5.554;2023-08-06T01:17:40;2.63;;;1.65;;
19026;SDS011;9646;52.034;5.554;2023-08-06T01:20:07;4.13;;;2.20;;
19026;SDS011;9646;52.034;5.554;2023-08-06T01:22:36;3.40;;;2.30;;
19026;SDS011;9646;52.034;5.554;2023-08-06T01:25:03;4.10;;;2.03;;
19026;SDS011;9646;52.034;5.554;2023-08-06T01:27:38;3.17;;;2.05;;
19026;SDS011;9646;52.034;5.554;2023-08-06T01:30:08;2.75;;;1.60;;
19026;SDS011;9646;52.034;5.554;2023-08-06T01:32:38;3.85;;;2.05;;
19026;SDS011;9646;52.034;5.554;2023-08-06T01:35:07;2.28;;;1.83;;
19026;SDS011;9646;52.034;5.554;2023-08-06T01:37:34;2.75;;;2.00;;
19026;SDS011;9646;52.034;5.554;2023-08-06T01:40:06;1.80;;;1.48;;
19026;SDS011;9646;52.034;5.554;2023-08-06T01:42:33;2.28;;;1.85;;
19026;SDS011;9646;52.034;5.554;2023-08-06T01:45:01;2.63;;;2.40;;
19026;SDS011;9646;52.034;5.554;2023-08-06T01:47:28;2.60;;;2.15;;
19026;SDS011;9646;52.034;5.554;2023-08-06T01:49:55;3.53;;;2.47;;
19026;SDS011;9646;52.034;5.554;2023-08-06T01:52:22;4.00;;;2.53;;
19026;SDS011;9646;52.034;5.554;2023-08-06T01:54:49;4.80;;;2.80;;
19026;SDS011;9646;52.034;5.554;2023-08-06T01:57:17;3.63;;;2.85;;
19026;SDS011;9646;52.034;5.554;2023-08-06T01:59:44;5.80;;;3.10;;
19026;SDS011;9646;52.034;5.554;2023-08-06T02:02:11;3.75;;;2.58;;
19026;SDS011;9646;52.034;5.554;2023-08-06T02:04:38;3.22;;;2.92;;
19026;SDS011;9646;52.034;5.554;2023-08-06T02:07:05;3.25;;;2.70;;
19026;SDS011;9646;52.034;5.554;2023-08-06T02:09:33;4.40;;;3.00;;
19026;SDS011;9646;52.034;5.554;2023-08-06T02:12:00;4.13;;;3.20;;
19026;SDS011;9646;52.034;5.554;2023-08-06T02:14:29;2.78;;;2.30;;
19026;SDS011;9646;52.034;5.554;2023-08-06T02:16:56;4.93;;;2.78;;
19026;SDS011;9646;52.034;5.554;2023-08-06T02:19:23;6.55;;;3.65;;
19026;SDS011;9646;52.034;5.554;2023-08-06T02:21:50;4.65;;;3.63;;
19026;SDS011;9646;52.034;5.554;2023-08-06T02:24:17;3.45;;;2.88;;
19026;SDS011;9646;52.034;5.554;2023-08-06T02:26:44;4.20;;;3.25;;
19026;SDS011;9646;52.034;5.554;2023-08-06T02:29:12;5.10;;;3.60;;
19026;SDS011;9646;52.034;5.554;2023-08-06T02:31:41;4.22;;;2.97;;
19026;SDS011;9646;52.034;5.554;2023-08-06T02:34:08;6.03;;;4.00;;
19026;SDS011;9646;52.034;5.554;2023-08-06T02:36:35;5.28;;;3.13;;
19026;SDS011;9646;52.034;5.554;2023-08-06T02:39:02;3.15;;;2.70;;
19026;SDS011;9646;52.034;5.554;2023-08-06T02:41:29;3.45;;;3.10;;
19026;SDS011;9646;52.034;5.554;2023-08-06T02:43:56;4.80;;;4.05;;
19026;SDS011;9646;52.034;5.554;2023-08-06T02:46:23;4.38;;;3.60;;
19026;SDS011;9646;52.034;5.554;2023-08-06T02:48:51;3.85;;;3.38;;
19026;SDS011;9646;52.034;5.554;2023-08-06T02:51:18;4.55;;;3.40;;
19026;SDS011;9646;52.034;5.554;2023-08-06T02:53:47;3.15;;;2.83;;
19026;SDS011;9646;52.034;5.554;2023-08-06T02:56:14;5.15;;;3.08;;
19026;SDS011;9646;52.034;5.554;2023-08-06T02:58:41;5.70;;;3.42;;
19026;SDS011;9646;52.034;5.554;2023-08-06T03:01:08;3.80;;;3.38;;
19026;SDS011;9646;52.034;5.554;2023-08-06T03:03:35;5.55;;;3.20;;
19026;SDS011;9646;52.034;5.554;2023-08-06T03:06:04;3.63;;;3.08;;
19026;SDS011;9646;52.034;5.554;2023-08-06T03:08:31;4.28;;;3.17;;
19026;SDS011;9646;52.034;5.554;2023-08-06T03:10:58;5.07;;;4.10;;
19026;SDS011;9646;52.034;5.554;2023-08-06T03:13:25;4.13;;;3.72;;
19026;SDS011;9646;52.034;5.554;2023-08-06T03:15:53;4.93;;;3.40;;
19026;SDS011;9646;52.034;5.554;2023-08-06T03:18:21;5.00;;;3.42;;
19026;SDS011;9646;52.034;5.554;2023-08-06T03:20:48;3.50;;;2.92;;
19026;SDS011;9646;52.034;5.554;2023-08-06T03:23:17;3.83;;;3.42;;
19026;SDS011;9646;52.034;5.554;2023-08-06T03:25:44;5.15;;;3.50;;
19026;SDS011;9646;52.034;5.554;2023-08-06T03:28:11;4.03;;;3.28;;
19026;SDS011;9646;52.034;5.554;2023-08-06T03:30:38;3.70;;;3.03;;
19026;SDS011;9646;52.034;5.554;2023-08-06T03:33:05;3.25;;;2.95;;
19026;SDS011;9646;52.034;5.554;2023-08-06T03:35:32;3.55;;;2.95;;
19026;SDS011;9646;52.034;5.554;2023-08-06T03:37:59;5.43;;;3.67;;
19026;SDS011;9646;52.034;5.554;2023-08-06T03:40:28;4.95;;;3.83;;
19026;SDS011;9646;52.034;5.554;2023-08-06T03:42:55;4.07;;;3.67;;
19026;SDS011;9646;52.034;5.554;2023-08-06T03:45:22;4.40;;;3.42;;
19026;SDS011;9646;52.034;5.554;2023-08-06T03:47:49;3.92;;;3.55;;
19026;SDS011;9646;52.034;5.554;2023-08-06T03:50:16;4.15;;;3.75;;
19026;SDS011;9646;52.034;5.554;2023-08-06T03:52:43;4.65;;;3.90;;
19026;SDS011;9646;52.034;5.554;2023-08-06T03:55:10;4.63;;;4.00;;
19026;SDS011;9646;52.034;5.554;2023-08-06T03:57:39;4.65;;;4.25;;
19026;SDS011;9646;52.034;5.554;2023-08-06T04:00:06;5.47;;;4.32;;
19026;SDS011;9646;52.034;5.554;2023-08-06T04:02:34;6.05;;;4.50;;
19026;SDS011;9646;52.034;5.554;2023-08-06T04:05:01;4.70;;;4.00;;
19026;SDS011;9646;52.034;5.554;2023-08-06T04:07:28;5.03;;;4.28;;
19026;SDS011;9646;52.034;5.554;2023-08-06T04:09:56;4.63;;;4.13;;
19026;SDS011;9646;52.034;5.554;2023-08-06T04:12:23;4.00;;;3.60;;
19026;SDS011;9646;52.034;5.554;2023-08-06T04:14:52;5.35;;;4.30;;
19026;SDS011;9646;52.034;5.554;2023-08-06T04:17:19;4.68;;;4.15;;
19026;SDS011;9646;52.034;5.554;2023-08-06T04:19:47;5.00;;;4.50;;
19026;SDS011;9646;52.034;5.554;2023-08-06T04:22:14;4.95;;;4.45;;
19026;SDS011;9646;52.034;5.554;2023-08-06T04:24:41;4.75;;;4.18;;
19026;SDS011;9646;52.034;5.554;2023-08-06T04:27:09;6.25;;;4.25;;
19026;SDS011;9646;52.034;5.554;2023-08-06T04:29:36;5.32;;;4.18;;
19026;SDS011;9646;52.034;5.554;2023-08-06T04:32:05;6.70;;;4.80;;
19026;SDS011;9646;52.034;5.554;2023-08-06T04:34:32;5.90;;;4.43;;
19026;SDS011;9646;52.034;5.554;2023-08-06T04:37:00;5.35;;;4.10;;
19026;SDS011;9646;52.034;5.554;2023-08-06T04:39:27;5.30;;;4.28;;
19026;SDS011;9646;52.034;5.554;2023-08-06T04:41:54;7.47;;;4.65;;
19026;SDS011;9646;52.034;5.554;2023-08-06T04:44:21;6.10;;;3.88;;
19026;SDS011;9646;52.034;5.554;2023-08-06T04:46:48;5.75;;;5.15;;
19026;SDS011;9646;52.034;5.554;2023-08-06T04:49:17;5.03;;;4.53;;
19026;SDS011;9646;52.034;5.554;2023-08-06T04:51:44;5.03;;;4.20;;
19026;SDS011;9646;52.034;5.554;2023-08-06T04:54:11;5.68;;;4.45;;
19026;SDS011;9646;52.034;5.554;2023-08-06T04:56:38;5.72;;;4.03;;
19026;SDS011;9646;52.034;5.554;2023-08-06T04:59:05;5.78;;;4.43;;
19026;SDS011;9646;52.034;5.554;2023-08-06T05:01:32;5.32;;;3.75;;
19026;SDS011;9646;52.034;5.554;2023-08-06T05:03:59;5.93;;;4.43;;
19026;SDS011;9646;52.034;5.554;2023-08-06T05:06:28;8.75;;;4.88;;
19026;SDS011;9646;52.034;5.554;2023-08-06T05:08:55;10.85;;;6.22;;
19026;SDS011;9646;52.034;5.554;2023-08-06T05:11:22;11.43;;;5.63;;
19026;SDS011;9646;52.034;5.554;2023-08-06T05:13:49;7.55;;;6.07;;
19026;SDS011;9646;52.034;5.554;2023-08-06T05:16:16;11.95;;;5.70;;
19026;SDS011;9646;52.034;5.554;2023-08-06T05:18:43;10.27;;;5.95;;
19026;SDS011;9646;52.034;5.554;2023-08-06T05:21:10;10.13;;;5.97;;
19026;SDS011;9646;52.034;5.554;2023-08-06T05:23:38;7.15;;;5.45;;
19026;SDS011;9646;52.034;5.554;2023-08-06T05:26:06;8.75;;;6.53;;
19026;SDS011;9646;52.034;5.554;2023-08-06T05:28:33;8.57;;;5.82;;
19026;SDS011;9646;52.034;5.554;2023-08-06T05:31:02;7.68;;;6.15;;
19026;SDS011;9646;52.034;5.554;2023-08-06T05:33:29;8.73;;;6.72;;
19026;SDS011;9646;52.034;5.554;2023-08-06T05:35:57;8.70;;;5.72;;
19026;SDS011;9646;52.034;5.554;2023-08-06T05:38:24;10.48;;;7.00;;
19026;SDS011;9646;52.034;5.554;2023-08-06T05:40:52;8.05;;;6.38;;
19026;SDS011;9646;52.034;5.554;2023-08-06T05:43:20;9.63;;;5.80;;
19026;SDS011;9646;52.034;5.554;2023-08-06T05:45:48;8.30;;;6.57;;
19026;SDS011;9646;52.034;5.554;2023-08-06T05:48:15;7.32;;;5.72;;
19026;SDS011;9646;52.034;5.554;2023-08-06T05:50:42;9.50;;;6.70;;
19026;SDS011;9646;52.034;5.554;2023-08-06T05:53:09;8.55;;;6.20;;
19026;SDS011;9646;52.034;5.554;2023-08-06T05:55:36;6.45;;;5.72;;
19026;SDS011;9646;52.034;5.554;2023-08-06T05:58:06;7.93;;;5.78;;
19026;SDS011;9646;52.034;5.554;2023-08-06T06:00:33;7.55;;;5.78;;
19026;SDS011;9646;52.034;5.554;2023-08-06T06:03:00;8.80;;;5.60;;
19026;SDS011;9646;52.034;5.554;2023-08-06T06:05:28;8.38;;;5.60;;
19026;SDS011;9646;52.034;5.554;2023-08-06T06:07:55;8.38;;;5.80;;
19026;SDS011;9646;52.034;5.554;2023-08-06T06:10:22;10.43;;;6.35;;
19026;SDS011;9646;52.034;5.554;2023-08-06T06:12:49;7.95;;;5.90;;
19026;SDS011;9646;52.034;5.554;2023-08-06T06:15:17;8.95;;;5.70;;
19026;SDS011;9646;52.034;5.554;2023-08-06T06:17:44;7.95;;;5.82;;
19026;SDS011;9646;52.034;5.554;2023-08-06T06:20:11;8.98;;;6.07;;
19026;SDS011;9646;52.034;5.554;2023-08-06T06:22:38;10.90;;;5.45;;
19026;SDS011;9646;52.034;5.554;2023-08-06T06:25:06;7.05;;;5.85;;
19026;SDS011;9646;52.034;5.554;2023-08-06T06:27:33;7.25;;;5.95;;
19026;SDS011;9646;52.034;5.554;2023-08-06T06:30:00;7.47;;;5.18;;
19026;SDS011;9646;52.034;5.554;2023-08-06T06:32:30;10.48;;;6.13;;
19026;SDS011;9646;52.034;5.554;2023-08-06T06:34:57;9.52;;;6.70;;
19026;SDS011;9646;52.034;5.554;2023-08-06T06:37:24;7.00;;;5.45;;
19026;SDS011;9646;52.034;5.554;2023-08-06T06:39:51;6.78;;;6.07;;
19026;SDS011;9646;52.034;5.554;2023-08-06T06:42:19;8.48;;;6.05;;
19026;SDS011;9646;52.034;5.554;2023-08-06T06:44:46;5.88;;;5.28;;
19026;SDS011;9646;52.034;5.554;2023-08-06T06:47:13;7.85;;;5.85;;
19026;SDS011;9646;52.034;5.554;2023-08-06T06:49:41;7.45;;;6.05;;
19026;SDS011;9646;52.034;5.554;2023-08-06T06:52:08;8.15;;;6.15;;
19026;SDS011;9646;52.034;5.554;2023-08-06T06:54:36;7.10;;;6.40;;
19026;SDS011;9646;52.034;5.554;2023-08-06T06:57:03;7.80;;;5.55;;
19026;SDS011;9646;52.034;5.554;2023-08-06T06:59:31;6.68;;;5.63;;
19026;SDS011;9646;52.034;5.554;2023-08-06T07:01:58;7.43;;;6.65;;
19026;SDS011;9646;52.034;5.554;2023-08-06T07:04:25;7.07;;;6.38;;
19026;SDS011;9646;52.034;5.554;2023-08-06T07:06:53;8.57;;;6.40;;
19026;SDS011;9646;52.034;5.554;2023-08-06T07:09:20;7.07;;;6.38;;
19026;SDS011;9646;52.034;5.554;2023-08-06T07:11:47;6.78;;;6.07;;
19026;SDS011;9646;52.034;5.554;2023-08-06T07:14:14;8.23;;;6.32;;
19026;SDS011;9646;52.034;5.554;2023-08-06T07:16:41;6.57;;;5.93;;
19026;SDS011;9646;52.034;5.554;2023-08-06T07:19:08;7.55;;;5.95;;
19026;SDS011;9646;52.034;5.554;2023-08-06T07:21:35;7.07;;;5.70;;
19026;SDS011;9646;52.034;5.554;2023-08-06T07:24:04;6.15;;;5.55;;
19026;SDS011;9646;52.034;5.554;2023-08-06T07:26:31;7.15;;;6.45;;
19026;SDS011;9646;52.034;5.554;2023-08-06T07:28:58;6.40;;;5.80;;
19026;SDS011;9646;52.034;5.554;2023-08-06T07:31:25;7.45;;;6.00;;
19026;SDS011;9646;52.034;5.554;2023-08-06T07:33:52;7.05;;;6.30;;
19026;SDS011;9646;52.034;5.554;2023-08-06T07:36:20;10.30;;;7.10;;
19026;SDS011;9646;52.034;5.554;2023-08-06T07:38:47;7.13;;;5.93;;
19026;SDS011;9646;52.034;5.554;2023-08-06T07:41:22;8.10;;;6.20;;
19026;SDS011;9646;52.034;5.554;2023-08-06T07:43:49;10.18;;;6.68;;
19026;SDS011;9646;52.034;5.554;2023-08-06T07:46:16;6.78;;;5.72;;
19026;SDS011;9646;52.034;5.554;2023-08-06T07:48:43;9.80;;;6.00;;
19026;SDS011;9646;52.034;5.554;2023-08-06T07:51:10;5.85;;;5.25;;
19026;SDS011;9646;52.034;5.554;2023-08-06T07:53:37;7.88;;;5.35;;
19026;SDS011;9646;52.034;5.554;2023-08-06T07:56:04;7.00;;;4.70;;
19026;SDS011;9646;52.034;5.554;2023-08-06T07:58:33;5.55;;;4.10;;
19026;SDS011;9646;52.034;5.554;2023-08-06T08:01:00;4.47;;;4.07;;
19026;SDS011;9646;52.034;5.554;2023-08-06T08:03:27;4.47;;;3.88;;
19026;SDS011;9646;52.034;5.554;2023-08-06T08:05:55;5.82;;;4.22;;
19026;SDS011;9646;52.034;5.554;2023-08-06T08:08:25;5.82;;;4.28;;
19026;SDS011;9646;52.034;5.554;2023-08-06T08:10:52;5.60;;;4.80;;
19026;SDS011;9646;52.034;5.554;2023-08-06T08:13:20;5.20;;;4.70;;
19026;SDS011;9646;52.034;5.554;2023-08-06T08:15:48;5.65;;;4.90;;
19026;SDS011;9646;52.034;5.554;2023-08-06T08:18:15;6.63;;;4.75;;
19026;SDS011;9646;52.034;5.554;2023-08-06T08:20:42;5.55;;;4.53;;
19026;SDS011;9646;52.034;5.554;2023-08-06T08:23:10;5.88;;;5.38;;
19026;SDS011;9646;52.034;5.554;2023-08-06T08:25:37;5.70;;;5.07;;
19026;SDS011;9646;52.034;5.554;2023-08-06T08:28:04;6.53;;;5.28;;
19026;SDS011;9646;52.034;5.554;2023-08-06T08:30:31;6.15;;;4.10;;
19026;SDS011;9646;52.034;5.554;2023-08-06T08:33:00;5.35;;;3.90;;
19026;SDS011;9646;52.034;5.554;2023-08-06T08:35:27;4.93;;;4.43;;
19026;SDS011;9646;52.034;5.554;2023-08-06T08:37:54;1.73;;;1.63;;
19026;SDS011;9646;52.034;5.554;2023-08-06T08:40:21;1.30;;;1.20;;
19026;SDS011;9646;52.034;5.554;2023-08-06T08:42:51;1.95;;;0.90;;
19026;SDS011;9646;52.034;5.554;2023-08-06T08:45:18;1.13;;;0.82;;
19026;SDS011;9646;52.034;5.554;2023-08-06T08:47:47;1.10;;;0.60;;
19026;SDS011;9646;52.034;5.554;2023-08-06T08:50:15;2.08;;;1.10;;
19026;SDS011;9646;52.034;5.554;2023-08-06T08:52:44;1.40;;;0.70;;
19026;SDS011;9646;52.034;5.554;2023-08-06T08:55:14;0.80;;;0.70;;
19026;SDS011;9646;52.034;5.554;2023-08-06T08:57:41;0.95;;;0.85;;
19026;SDS011;9646;52.034;5.554;2023-08-06T09:00:08;0.93;;;0.80;;
19026;SDS011;9646;52.034;5.554;2023-08-06T09:02:36;1.55;;;0.90;;
19026;SDS011;9646;52.034;5.554;2023-08-06T09:05:04;1.20;;;0.88;;
19026;SDS011;9646;52.034;5.554;2023-08-06T09:07:34;1.02;;;0.93;;
19026;SDS011;9646;52.034;5.554;2023-08-06T09:10:02;0.90;;;0.90;;
19026;SDS011;9646;52.034;5.554;2023-08-06T09:12:30;1.58;;;0.90;;
19026;SDS011;9646;52.034;5.554;2023-08-06T09:14:58;0.90;;;0.90;;
19026;SDS011;9646;52.034;5.554;2023-08-06T09:17:25;2.47;;;0.90;;
19026;SDS011;9646;52.034;5.554;2023-08-06T09:19:53;0.93;;;0.77;;
19026;SDS011;9646;52.034;5.554;2023-08-06T09:22:20;0.80;;;0.80;;
19026;SDS011;9646;52.034;5.554;2023-08-06T09:24:49;1.23;;;1.00;;
19026;SDS011;9646;52.034;5.554;2023-08-06T09:27:16;1.33;;;1.10;;
19026;SDS011;9646;52.034;5.554;2023-08-06T09:29:43;1.50;;;1.40;;
19026;SDS011;9646;52.034;5.554;2023-08-06T09:32:11;1.73;;;1.33;;
19026;SDS011;9646;52.034;5.554;2023-08-06T09:34:38;1.50;;;1.40;;
19026;SDS011;9646;52.034;5.554;2023-08-06T09:37:07;1.67;;;1.40;;
19026;SDS011;9646;52.034;5.554;2023-08-06T09:39:37;1.85;;;1.50;;
19026;SDS011;9646;52.034;5.554;2023-08-06T09:42:06;1.88;;;1.50;;
19026;SDS011;9646;52.034;5.554;2023-08-06T09:44:33;2.05;;;1.83;;
19026;SDS011;9646;52.034;5.554;2023-08-06T09:47:01;4.07;;;2.10;;
19026;SDS011;9646;52.034;5.554;2023-08-06T09:49:28;3.17;;;1.88;;
19026;SDS011;9646;52.034;5.554;2023-08-06T09:52:06;3.97;;;1.90;;
19026;SDS011;9646;52.034;5.554;2023-08-06T09:54:36;3.35;;;2.13;;
19026;SDS011;9646;52.034;5.554;2023-08-06T09:57:05;2.03;;;1.52;;
19026;SDS011;9646;52.034;5.554;2023-08-06T09:59:32;2.15;;;1.73;;
19026;SDS011;9646;52.034;5.554;2023-08-06T10:02:00;2.05;;;1.77;;
19026;SDS011;9646;52.034;5.554;2023-08-06T10:04:27;1.70;;;1.60;;
19026;SDS011;9646;52.034;5.554;2023-08-06T10:06:56;3.22;;;1.83;;
19026;SDS011;9646;52.034;5.554;2023-08-06T10:09:23;2.28;;;1.50;;
19026;SDS011;9646;52.034;5.554;2023-08-06T10:11:51;2.80;;;1.80;;
19026;SDS011;9646;52.034;5.554;2023-08-06T10:14:21;1.80;;;1.65;;
19026;SDS011;9646;52.034;5.554;2023-08-06T10:16:50;2.58;;;1.92;;
19026;SDS011;9646;52.034;5.554;2023-08-06T10:19:17;2.47;;;2.13;;
19026;SDS011;9646;52.034;5.554;2023-08-06T10:24:27;2.20;;;1.83;;
19026;SDS011;9646;52.034;5.554;2023-08-06T10:26:56;3.90;;;2.47;;
19026;SDS011;9646;52.034;5.554;2023-08-06T10:29:37;3.50;;;2.30;;
19026;SDS011;9646;52.034;5.554;2023-08-06T10:32:04;4.47;;;2.60;;
19026;SDS011;9646;52.034;5.554;2023-08-06T10:37:19;2.78;;;2.30;;
19026;SDS011;9646;52.034;5.554;2023-08-06T10:39:48;3.05;;;2.38;;
19026;SDS011;9646;52.034;5.554;2023-08-06T10:42:19;3.63;;;2.88;;
19026;SDS011;9646;52.034;5.554;2023-08-06T10:47:30;4.38;;;3.90;;
19026;SDS011;9646;52.034;5.554;2023-08-06T10:49:57;4.60;;;3.28;;
19026;SDS011;9646;52.034;5.554;2023-08-06T10:52:24;5.32;;;3.80;;
19026;SDS011;9646;52.034;5.554;2023-08-06T10:54:51;5.97;;;3.60;;
19026;SDS011;9646;52.034;5.554;2023-08-06T10:57:20;4.72;;;3.30;;
19026;SDS011;9646;52.034;5.554;2023-08-06T10:59:47;4.43;;;3.25;;
19026;SDS011;9646;52.034;5.554;2023-08-06T11:02:14;4.65;;;3.10;;
19026;SDS011;9646;52.034;5.554;2023-08-06T11:04:43;5.47;;;3.65;;
19026;SDS011;9646;52.034;5.554;2023-08-06T11:07:10;4.78;;;3.60;;
19026;SDS011;9646;52.034;5.554;2023-08-06T11:09:37;4.93;;;3.38;;
19026;SDS011;9646;52.034;5.554;2023-08-06T11:12:07;4.72;;;3.53;;
19026;SDS011;9646;52.034;5.554;2023-08-06T11:14:35;4.45;;;3.53;;
19026;SDS011;9646;52.034;5.554;2023-08-06T11:17:03;5.25;;;2.92;;
19026;SDS011;9646;52.034;5.554;2023-08-06T11:19:31;4.38;;;3.08;;
19026;SDS011;9646;52.034;5.554;2023-08-06T11:21:59;5.03;;;3.90;;
19026;SDS011;9646;52.034;5.554;2023-08-06T11:24:27;4.60;;;3.42;;
19026;SDS011;9646;52.034;5.554;2023-08-06T11:26:54;6.20;;;3.67;;
19026;SDS011;9646;52.034;5.554;2023-08-06T11:29:21;4.28;;;2.92;;
19026;SDS011;9646;52.034;5.554;2023-08-06T11:31:49;4.32;;;2.97;;
19026;SDS011;9646;52.034;5.554;2023-08-06T11:34:16;8.18;;;3.10;;
19026;SDS011;9646;52.034;5.554;2023-08-06T11:36:43;3.75;;;2.78;;
19026;SDS011;9646;52.034;5.554;2023-08-06T11:39:11;4.22;;;3.08;;
19026;SDS011;9646;52.034;5.554;2023-08-06T11:41:38;4.22;;;3.40;;
19026;SDS011;9646;52.034;5.554;2023-08-06T11:44:07;5.68;;;3.08;;
19026;SDS011;9646;52.034;5.554;2023-08-06T11:46:49;4.47;;;3.08;;
19026;SDS011;9646;52.034;5.554;2023-08-06T11:49:17;3.53;;;2.85;;
19026;SDS011;9646;52.034;5.554;2023-08-06T11:51:47;2.83;;;2.50;;
19026;SDS011;9646;52.034;5.554;2023-08-06T11:54:15;3.92;;;2.42;;
19026;SDS011;9646;52.034;5.554;2023-08-06T11:56:42;3.58;;;2.58;;
19026;SDS011;9646;52.034;5.554;2023-08-06T11:59:09;4.82;;;2.90;;
19026;SDS011;9646;52.034;5.554;2023-08-06T12:01:36;5.07;;;3.03;;
19026;SDS011;9646;52.034;5.554;2023-08-06T12:04:05;2.83;;;2.28;;
19026;SDS011;9646;52.034;5.554;2023-08-06T12:06:41;5.00;;;2.90;;
19026;SDS011;9646;52.034;5.554;2023-08-06T12:09:08;4.13;;;2.40;;
19026;SDS011;9646;52.034;5.554;2023-08-06T12:11:37;3.17;;;2.20;;
19026;SDS011;9646;52.034;5.554;2023-08-06T12:14:04;3.33;;;2.20;;
19026;SDS011;9646;52.034;5.554;2023-08-06T12:16:31;3.75;;;2.40;;
19026;SDS011;9646;52.034;5.554;2023-08-06T12:18:58;3.08;;;2.30;;
19026;SDS011;9646;52.034;5.554;2023-08-06T12:21:25;3.85;;;2.08;;
19026;SDS011;9646;52.034;5.554;2023-08-06T12:23:52;2.95;;;2.08;;
19026;SDS011;9646;52.034;5.554;2023-08-06T12:26:19;4.80;;;2.03;;
19026;SDS011;9646;52.034;5.554;2023-08-06T12:28:48;2.78;;;2.22;;
19026;SDS011;9646;52.034;5.554;2023-08-06T12:31:15;2.42;;;2.00;;
19026;SDS011;9646;52.034;5.554;2023-08-06T12:33:42;3.25;;;1.95;;
19026;SDS011;9646;52.034;5.554;2023-08-06T12:36:09;1.80;;;1.50;;
19026;SDS011;9646;52.034;5.554;2023-08-06T12:38:36;3.28;;;1.85;;
19026;SDS011;9646;52.034;5.554;2023-08-06T12:41:03;2.00;;;1.52;;
19026;SDS011;9646;52.034;5.554;2023-08-06T12:43:30;2.55;;;1.80;;
19026;SDS011;9646;52.034;5.554;2023-08-06T12:45:59;2.67;;;1.80;;
19026;SDS011;9646;52.034;5.554;2023-08-06T12:48:26;1.88;;;1.70;;
19026;SDS011;9646;52.034;5.554;2023-08-06T12:50:53;1.80;;;1.52;;
19026;SDS011;9646;52.034;5.554;2023-08-06T12:53:20;3.78;;;1.60;;
19026;SDS011;9646;52.034;5.554;2023-08-06T12:55:48;2.28;;;1.50;;
19026;SDS011;9646;52.034;5.554;2023-08-06T12:58:15;2.55;;;1.40;;
19026;SDS011;9646;52.034;5.554;2023-08-06T13:00:42;4.68;;;1.50;;
19026;SDS011;9646;52.034;5.554;2023-08-06T13:03:11;2.53;;;1.50;;
19026;SDS011;9646;52.034;5.554;2023-08-06T13:05:38;2.95;;;1.85;;
19026;SDS011;9646;52.034;5.554;2023-08-06T13:08:05;1.80;;;1.35;;
19026;SDS011;9646;52.034;5.554;2023-08-06T13:10:32;2.40;;;1.35;;
19026;SDS011;9646;52.034;5.554;2023-08-06T13:12:59;1.88;;;1.30;;
19026;SDS011;9646;52.034;5.554;2023-08-06T13:15:26;2.33;;;1.30;;
19026;SDS011;9646;52.034;5.554;2023-08-06T13:17:53;2.75;;;1.45;;
19026;SDS011;9646;52.034;5.554;2023-08-06T13:20:21;4.25;;;1.95;;
19026;SDS011;9646;52.034;5.554;2023-08-06T13:22:49;2.13;;;1.40;;
19026;SDS011;9646;52.034;5.554;2023-08-06T13:25:18;2.45;;;1.50;;
19026;SDS011;9646;52.034;5.554;2023-08-06T13:27:45;1.90;;;1.30;;
19026;SDS011;9646;52.034;5.554;2023-08-06T13:30:12;2.92;;;1.52;;
19026;SDS011;9646;52.034;5.554;2023-08-06T13:32:39;4.50;;;1.80;;
19026;SDS011;9646;52.034;5.554;2023-08-06T13:35:06;3.30;;;1.52;;
19026;SDS011;9646;52.034;5.554;2023-08-06T13:37:35;2.72;;;1.67;;
19026;SDS011;9646;52.034;5.554;2023-08-06T13:40:02;2.60;;;1.65;;
19026;SDS011;9646;52.034;5.554;2023-08-06T13:42:29;3.10;;;1.42;;
19026;SDS011;9646;52.034;5.554;2023-08-06T13:44:57;4.25;;;1.70;;
19026;SDS011;9646;52.034;5.554;2023-08-06T13:47:28;1.85;;;1.40;;
19026;SDS011;9646;52.034;5.554;2023-08-06T13:49:55;4.78;;;1.45;;
19026;SDS011;9646;52.034;5.554;2023-08-06T13:52:22;2.85;;;1.50;;
19026;SDS011;9646;52.034;5.554;2023-08-06T13:54:51;2.88;;;1.63;;
19026;SDS011;9646;52.034;5.554;2023-08-06T13:57:18;2.53;;;1.52;;
19026;SDS011;9646;52.034;5.554;2023-08-06T13:59:45;4.38;;;1.65;;
19026;SDS011;9646;52.034;5.554;2023-08-06T14:02:12;2.72;;;1.60;;
19026;SDS011;9646;52.034;5.554;2023-08-06T14:04:39;2.72;;;1.30;;
19026;SDS011;9646;52.034;5.554;2023-08-06T14:07:06;2.13;;;1.50;;
19026;SDS011;9646;52.034;5.554;2023-08-06T14:09:33;3.08;;;1.58;;
19026;SDS011;9646;52.034;5.554;2023-08-06T14:12:02;3.20;;;1.60;;
19026;SDS011;9646;52.034;5.554;2023-08-06T14:14:30;5.00;;;2.00;;
19026;SDS011;9646;52.034;5.554;2023-08-06T14:16:57;3.92;;;1.80;;
19026;SDS011;9646;52.034;5.554;2023-08-06T14:19:24;3.38;;;1.55;;
19026;SDS011;9646;52.034;5.554;2023-08-06T14:21:51;4.00;;;1.73;;
19026;SDS011;9646;52.034;5.554;2023-08-06T14:24:20;5.32;;;1.98;;
19026;SDS011;9646;52.034;5.554;2023-08-06T14:26:47;2.58;;;1.70;;
19026;SDS011;9646;52.034;5.554;2023-08-06T14:29:15;3.08;;;1.77;;
19026;SDS011;9646;52.034;5.554;2023-08-06T14:31:42;3.78;;;1.85;;
19026;SDS011;9646;52.034;5.554;2023-08-06T14:34:09;3.40;;;2.30;;
19026;SDS011;9646;52.034;5.554;2023-08-06T14:36:37;2.88;;;1.90;;
19026;SDS011;9646;52.034;5.554;2023-08-06T14:39:04;2.80;;;1.80;;
19026;SDS011;9646;52.034;5.554;2023-08-06T14:41:31;5.07;;;2.08;;
19026;SDS011;9646;52.034;5.554;2023-08-06T14:43:58;4.10;;;1.88;;
19026;SDS011;9646;52.034;5.554;2023-08-06T14:46:26;4.07;;;2.13;;
19026;SDS011;9646;52.034;5.554;2023-08-06T14:48:53;3.83;;;2.25;;
19026;SDS011;9646;52.034;5.554;2023-08-06T14:51:20;5.63;;;1.80;;
19026;SDS011;9646;52.034;5.554;2023-08-06T14:53:48;2.38;;;1.60;;
19026;SDS011;9646;52.034;5.554;2023-08-06T14:56:15;6.00;;;2.10;;
19026;SDS011;9646;52.034;5.554;2023-08-06T14:58:42;2.60;;;1.88;;
19026;SDS011;9646;52.034;5.554;2023-08-06T15:01:09;5.50;;;1.83;;
19026;SDS011;9646;52.034;5.554;2023-08-06T15:03:38;3.65;;;1.67;;
19026;SDS011;9646;52.034;5.554;2023-08-06T15:06:05;3.00;;;1.60;;
19026;SDS011;9646;52.034;5.554;2023-08-06T15:08:32;2.15;;;1.60;;
19026;SDS011;9646;52.034;5.554;2023-08-06T15:10:59;2.50;;;1.80;;